sensor_id;sensor_type;location;lat;lon;timestamp;P1;durP1;ratioP1;P2;durP2;ratioP2
57339;SDS011;43174;50.930;18.170;2023-02-15T00:06:04;9.80;;;9.30;;
57339;SDS011;43174;50.930;18.170;2023-02-15T00:15:46;9.30;;;8.90;;
57339;SDS011;43174;50.930;18.170;2023-02-15T00:25:27;9.30;;;8.90;;
57339;SDS011;43174;50.930;18.170;2023-02-15T00:32:44;14.50;;;13.40;;
57339;SDS011;43174;50.930;18.170;2023-02-15T00:42:28;14.90;;;12.90;;
57339;SDS011;43174;50.930;18.170;2023-02-15T00:52:11;11.60;;;10.40;;
57339;SDS011;43174;50.930;18.170;2023-02-15T01:01:54;11.70;;;11.00;;
57339;SDS011;43174;50.930;18.170;2023-02-15T01:11:39;30.00;;;14.00;;
57339;SDS011;43174;50.930;18.170;2023-02-15T01:21:22;16.00;;;14.40;;
57339;SDS011;43174;50.930;18.170;2023-02-15T01:31:05;14.00;;;13.20;;
57339;SDS011;43174;50.930;18.170;2023-02-15T01:33:30;18.90;;;17.00;;
57339;SDS011;43174;50.930;18.170;2023-02-15T01:43:12;16.00;;;14.80;;
57339;SDS011;43174;50.930;18.170;2023-02-15T01:52:59;18.40;;;16.60;;
57339;SDS011;43174;50.930;18.170;2023-02-15T02:02:43;11.90;;;11.40;;
57339;SDS011;43174;50.930;18.170;2023-02-15T02:12:26;13.40;;;12.10;;
57339;SDS011;43174;50.930;18.170;2023-02-15T02:32:31;12.10;;;11.60;;
57339;SDS011;43174;50.930;18.170;2023-02-15T02:42:21;15.10;;;13.90;;
57339;SDS011;43174;50.930;18.170;2023-02-15T02:52:33;16.50;;;15.40;;
57339;SDS011;43174;50.930;18.170;2023-02-15T03:02:10;35.40;;;17.00;;
57339;SDS011;43174;50.930;18.170;2023-02-15T03:12:00;15.40;;;14.50;;
57339;SDS011;43174;50.930;18.170;2023-02-15T03:31:40;12.70;;;11.50;;
57339;SDS011;43174;50.930;18.170;2023-02-15T03:41:24;27.10;;;13.20;;
57339;SDS011;43174;50.930;18.170;2023-02-15T03:51:29;13.60;;;12.50;;
57339;SDS011;43174;50.930;18.170;2023-02-15T04:01:36;14.00;;;13.20;;
57339;SDS011;43174;50.930;18.170;2023-02-15T04:11:56;16.40;;;14.90;;
57339;SDS011;43174;50.930;18.170;2023-02-15T04:22:15;21.30;;;12.40;;
57339;SDS011;43174;50.930;18.170;2023-02-15T04:32:29;33.60;;;13.40;;
57339;SDS011;43174;50.930;18.170;2023-02-15T04:42:10;16.90;;;15.30;;
57339;SDS011;43174;50.930;18.170;2023-02-15T04:51:52;29.80;;;18.20;;
57339;SDS011;43174;50.930;18.170;2023-02-15T05:01:34;20.70;;;18.80;;
57339;SDS011;43174;50.930;18.170;2023-02-15T05:11:16;18.70;;;17.40;;
57339;SDS011;43174;50.930;18.170;2023-02-15T05:20:58;28.40;;;20.90;;
57339;SDS011;43174;50.930;18.170;2023-02-15T05:31:12;39.10;;;26.60;;
57339;SDS011;43174;50.930;18.170;2023-02-15T05:40:54;27.30;;;20.90;;
57339;SDS011;43174;50.930;18.170;2023-02-15T05:50:36;60.20;;;26.60;;
57339;SDS011;43174;50.930;18.170;2023-02-15T06:07:35;67.30;;;26.00;;
57339;SDS011;43174;50.930;18.170;2023-02-15T06:17:16;31.70;;;24.00;;
57339;SDS011;43174;50.930;18.170;2023-02-15T06:26:58;69.40;;;33.50;;
57339;SDS011;43174;50.930;18.170;2023-02-15T06:36:41;39.50;;;25.70;;
57339;SDS011;43174;50.930;18.170;2023-02-15T06:46:23;39.10;;;26.90;;
57339;SDS011;43174;50.930;18.170;2023-02-15T06:56:06;35.30;;;27.90;;
57339;SDS011;43174;50.930;18.170;2023-02-15T07:05:56;53.20;;;30.70;;
57339;SDS011;43174;50.930;18.170;2023-02-15T07:15:39;45.80;;;26.90;;
57339;SDS011;43174;50.930;18.170;2023-02-15T07:25:21;57.70;;;29.90;;
57339;SDS011;43174;50.930;18.170;2023-02-15T07:35:23;32.90;;;24.90;;
57339;SDS011;43174;50.930;18.170;2023-02-15T07:45:06;42.80;;;22.00;;
57339;SDS011;43174;50.930;18.170;2023-02-15T07:54:48;49.30;;;21.60;;
57339;SDS011;43174;50.930;18.170;2023-02-15T08:04:30;23.00;;;20.60;;
57339;SDS011;43174;50.930;18.170;2023-02-15T08:14:17;29.00;;;23.60;;
57339;SDS011;43174;50.930;18.170;2023-02-15T08:23:59;31.90;;;24.40;;
57339;SDS011;43174;50.930;18.170;2023-02-15T08:33:42;58.10;;;24.00;;
57339;SDS011;43174;50.930;18.170;2023-02-15T08:43:24;51.80;;;32.80;;
57339;SDS011;43174;50.930;18.170;2023-02-15T08:53:06;67.30;;;31.90;;
57339;SDS011;43174;50.930;18.170;2023-02-15T09:02:49;46.50;;;22.60;;
57339;SDS011;43174;50.930;18.170;2023-02-15T09:12:32;66.80;;;24.80;;
57339;SDS011;43174;50.930;18.170;2023-02-15T09:22:14;45.90;;;30.80;;
57339;SDS011;43174;50.930;18.170;2023-02-15T09:31:57;58.90;;;28.90;;
57339;SDS011;43174;50.930;18.170;2023-02-15T10:01:33;49.60;;;42.30;;
57339;SDS011;43174;50.930;18.170;2023-02-15T10:11:21;45.20;;;35.80;;
57339;SDS011;43174;50.930;18.170;2023-02-15T10:21:36;64.40;;;39.80;;
57339;SDS011;43174;50.930;18.170;2023-02-15T10:31:28;34.60;;;31.10;;
57339;SDS011;43174;50.930;18.170;2023-02-15T10:41:20;40.70;;;33.30;;
57339;SDS011;43174;50.930;18.170;2023-02-15T10:51:07;30.40;;;27.40;;
57339;SDS011;43174;50.930;18.170;2023-02-15T11:11:07;28.10;;;25.10;;
57339;SDS011;43174;50.930;18.170;2023-02-15T11:30:43;33.70;;;26.90;;
57339;SDS011;43174;50.930;18.170;2023-02-15T11:40:32;31.50;;;27.20;;
57339;SDS011;43174;50.930;18.170;2023-02-15T11:50:16;22.80;;;20.70;;
57339;SDS011;43174;50.930;18.170;2023-02-15T12:19:31;10.20;;;9.70;;
57339;SDS011;43174;50.930;18.170;2023-02-15T12:29:15;32.00;;;28.60;;
57339;SDS011;43174;50.930;18.170;2023-02-15T12:48:45;36.20;;;29.50;;
57339;SDS011;43174;50.930;18.170;2023-02-15T12:58:27;30.50;;;27.80;;
57339;SDS011;43174;50.930;18.170;2023-02-15T13:08:15;41.10;;;36.90;;
57339;SDS011;43174;50.930;18.170;2023-02-15T13:18:00;51.70;;;36.40;;
57339;SDS011;43174;50.930;18.170;2023-02-15T13:27:44;38.30;;;34.40;;
57339;SDS011;43174;50.930;18.170;2023-02-15T14:07:33;41.10;;;33.80;;
57339;SDS011;43174;50.930;18.170;2023-02-15T14:37:41;34.60;;;30.90;;
57339;SDS011;43174;50.930;18.170;2023-02-15T14:47:55;41.40;;;31.80;;
57339;SDS011;43174;50.930;18.170;2023-02-15T14:57:40;31.00;;;26.10;;
57339;SDS011;43174;50.930;18.170;2023-02-15T15:57:16;31.50;;;26.10;;
57339;SDS011;43174;50.930;18.170;2023-02-15T16:17:00;30.50;;;21.30;;
57339;SDS011;43174;50.930;18.170;2023-02-15T16:36:27;32.90;;;23.80;;
57339;SDS011;43174;50.930;18.170;2023-02-15T16:46:10;43.40;;;17.50;;
57339;SDS011;43174;50.930;18.170;2023-02-15T16:55:55;20.60;;;18.40;;
57339;SDS011;43174;50.930;18.170;2023-02-15T17:05:44;14.90;;;13.50;;
57339;SDS011;43174;50.930;18.170;2023-02-15T17:25:18;24.30;;;20.80;;
57339;SDS011;43174;50.930;18.170;2023-02-15T17:44:50;19.80;;;18.00;;
57339;SDS011;43174;50.930;18.170;2023-02-15T17:54:33;27.70;;;16.40;;
57339;SDS011;43174;50.930;18.170;2023-02-15T18:05:14;24.50;;;20.10;;
57339;SDS011;43174;50.930;18.170;2023-02-15T18:15:53;29.80;;;19.60;;
57339;SDS011;43174;50.930;18.170;2023-02-15T18:25:37;19.00;;;17.00;;
57339;SDS011;43174;50.930;18.170;2023-02-15T18:35:25;16.60;;;15.10;;
57339;SDS011;43174;50.930;18.170;2023-02-15T18:45:15;31.90;;;20.70;;
57339;SDS011;43174;50.930;18.170;2023-02-15T18:54:58;34.50;;;22.70;;
57339;SDS011;43174;50.930;18.170;2023-02-15T19:04:43;24.40;;;20.10;;
57339;SDS011;43174;50.930;18.170;2023-02-15T19:14:27;32.80;;;23.00;;
57339;SDS011;43174;50.930;18.170;2023-02-15T19:24:19;11.10;;;10.60;;
57339;SDS011;43174;50.930;18.170;2023-02-15T19:34:11;41.20;;;24.80;;
57339;SDS011;43174;50.930;18.170;2023-02-15T19:43:53;38.90;;;25.90;;
57339;SDS011;43174;50.930;18.170;2023-02-15T19:53:37;33.30;;;22.90;;
57339;SDS011;43174;50.930;18.170;2023-02-15T20:03:19;26.30;;;20.70;;
57339;SDS011;43174;50.930;18.170;2023-02-15T20:13:03;37.20;;;22.50;;
57339;SDS011;43174;50.930;18.170;2023-02-15T20:22:46;50.80;;;25.70;;
57339;SDS011;43174;50.930;18.170;2023-02-15T20:32:32;73.00;;;24.20;;
57339;SDS011;43174;50.930;18.170;2023-02-15T20:42:18;50.00;;;30.20;;
57339;SDS011;43174;50.930;18.170;2023-02-15T20:52:01;34.20;;;24.90;;
57339;SDS011;43174;50.930;18.170;2023-02-15T20:54:28;78.00;;;35.70;;
57339;SDS011;43174;50.930;18.170;2023-02-15T21:04:18;42.30;;;26.40;;
57339;SDS011;43174;50.930;18.170;2023-02-15T21:14:01;64.10;;;30.90;;
57339;SDS011;43174;50.930;18.170;2023-02-15T21:23:43;58.30;;;27.70;;
57339;SDS011;43174;50.930;18.170;2023-02-15T21:33:26;59.50;;;28.60;;
57339;SDS011;43174;50.930;18.170;2023-02-15T21:43:15;71.20;;;28.40;;
57339;SDS011;43174;50.930;18.170;2023-02-15T21:53:55;65.10;;;31.10;;
57339;SDS011;43174;50.930;18.170;2023-02-15T22:03:36;48.10;;;28.80;;
57339;SDS011;43174;50.930;18.170;2023-02-15T22:13:24;89.20;;;30.60;;
57339;SDS011;43174;50.930;18.170;2023-02-15T22:23:07;58.50;;;26.30;;
57339;SDS011;43174;50.930;18.170;2023-02-15T22:40:06;78.20;;;30.50;;
57339;SDS011;43174;50.930;18.170;2023-02-15T22:49:49;43.00;;;26.60;;
57339;SDS011;43174;50.930;18.170;2023-02-15T22:59:31;73.50;;;26.90;;
57339;SDS011;43174;50.930;18.170;2023-02-15T23:09:15;59.40;;;31.60;;
57339;SDS011;43174;50.930;18.170;2023-02-15T23:18:59;30.60;;;23.00;;
57339;SDS011;43174;50.930;18.170;2023-02-15T23:28:40;35.10;;;20.90;;
57339;SDS011;43174;50.930;18.170;2023-02-15T23:38:24;51.30;;;30.50;;
57339;SDS011;43174;50.930;18.170;2023-02-15T23:48:30;72.80;;;34.30;;
57339;SDS011;43174;50.930;18.170;2023-02-15T23:58:17;52.70;;;31.90;;
